sensor_id;sensor_type;location;lat;lon;timestamp;P1;durP1;ratioP1;P2;durP2;ratioP2
13879;SDS011;7010;48.200;16.332;2022-08-21T00:00:52;2.42;;;2.33;;
13879;SDS011;7010;48.200;16.332;2022-08-21T00:03:22;3.33;;;3.03;;
13879;SDS011;7010;48.200;16.332;2022-08-21T00:05:50;2.63;;;2.42;;
13879;SDS011;7010;48.200;16.332;2022-08-21T00:08:20;2.50;;;2.40;;
13879;SDS011;7010;48.200;16.332;2022-08-21T00:10:48;2.65;;;2.45;;
13879;SDS011;7010;48.200;16.332;2022-08-21T00:13:18;3.22;;;2.92;;
13879;SDS011;7010;48.200;16.332;2022-08-21T00:15:47;3.17;;;2.97;;
13879;SDS011;7010;48.200;16.332;2022-08-21T00:18:16;2.63;;;2.42;;
13879;SDS011;7010;48.200;16.332;2022-08-21T00:20:46;2.72;;;2.53;;
13879;SDS011;7010;48.200;16.332;2022-08-21T00:23:15;3.13;;;2.83;;
13879;SDS011;7010;48.200;16.332;2022-08-21T00:25:44;2.83;;;2.63;;
13879;SDS011;7010;48.200;16.332;2022-08-21T00:28:13;2.90;;;2.70;;
13879;SDS011;7010;48.200;16.332;2022-08-21T00:30:42;2.47;;;2.30;;
13879;SDS011;7010;48.200;16.332;2022-08-21T00:33:11;2.88;;;2.67;;
13879;SDS011;7010;48.200;16.332;2022-08-21T00:35:40;2.88;;;2.67;;
13879;SDS011;7010;48.200;16.332;2022-08-21T00:38:11;4.40;;;3.40;;
13879;SDS011;7010;48.200;16.332;2022-08-21T00:40:41;3.70;;;3.40;;
13879;SDS011;7010;48.200;16.332;2022-08-21T00:43:14;3.03;;;2.83;;
13879;SDS011;7010;48.200;16.332;2022-08-21T00:45:46;3.38;;;3.17;;
13879;SDS011;7010;48.200;16.332;2022-08-21T00:48:17;3.38;;;2.90;;
13879;SDS011;7010;48.200;16.332;2022-08-21T00:50:46;3.50;;;3.20;;
13879;SDS011;7010;48.200;16.332;2022-08-21T00:53:19;3.47;;;3.22;;
13879;SDS011;7010;48.200;16.332;2022-08-21T00:55:47;3.25;;;3.05;;
13879;SDS011;7010;48.200;16.332;2022-08-21T00:58:17;4.38;;;3.97;;
13879;SDS011;7010;48.200;16.332;2022-08-21T01:00:47;3.42;;;3.13;;
13879;SDS011;7010;48.200;16.332;2022-08-21T01:03:18;3.42;;;2.60;;
13879;SDS011;7010;48.200;16.332;2022-08-21T01:05:49;3.28;;;3.08;;
13879;SDS011;7010;48.200;16.332;2022-08-21T01:08:20;3.58;;;3.30;;
13879;SDS011;7010;48.200;16.332;2022-08-21T01:10:50;2.67;;;2.47;;
13879;SDS011;7010;48.200;16.332;2022-08-21T01:13:20;3.88;;;3.58;;
13879;SDS011;7010;48.200;16.332;2022-08-21T01:15:51;4.72;;;4.28;;
13879;SDS011;7010;48.200;16.332;2022-08-21T01:18:22;10.43;;;3.75;;
13879;SDS011;7010;48.200;16.332;2022-08-21T01:21:04;3.65;;;3.35;;
13879;SDS011;7010;48.200;16.332;2022-08-21T01:23:39;4.32;;;3.97;;
13879;SDS011;7010;48.200;16.332;2022-08-21T01:26:09;3.65;;;3.35;;
13879;SDS011;7010;48.200;16.332;2022-08-21T01:28:40;3.65;;;3.45;;
13879;SDS011;7010;48.200;16.332;2022-08-21T01:31:12;4.45;;;4.05;;
13879;SDS011;7010;48.200;16.332;2022-08-21T01:33:49;3.97;;;3.67;;
13879;SDS011;7010;48.200;16.332;2022-08-21T01:36:19;3.85;;;3.55;;
13879;SDS011;7010;48.200;16.332;2022-08-21T01:38:48;3.35;;;3.15;;
13879;SDS011;7010;48.200;16.332;2022-08-21T01:41:16;3.97;;;3.67;;
13879;SDS011;7010;48.200;16.332;2022-08-21T01:43:45;4.20;;;3.90;;
13879;SDS011;7010;48.200;16.332;2022-08-21T01:46:13;4.93;;;4.43;;
13879;SDS011;7010;48.200;16.332;2022-08-21T01:48:42;3.80;;;3.50;;
13879;SDS011;7010;48.200;16.332;2022-08-21T01:51:10;3.17;;;2.97;;
13879;SDS011;7010;48.200;16.332;2022-08-21T01:53:40;3.80;;;3.50;;
13879;SDS011;7010;48.200;16.332;2022-08-21T01:56:09;3.80;;;3.50;;
13879;SDS011;7010;48.200;16.332;2022-08-21T01:58:40;3.38;;;3.17;;
13879;SDS011;7010;48.200;16.332;2022-08-21T02:01:10;3.78;;;3.47;;
13879;SDS011;7010;48.200;16.332;2022-08-21T02:03:38;3.28;;;3.08;;
13879;SDS011;7010;48.200;16.332;2022-08-21T02:06:11;3.25;;;2.90;;
13879;SDS011;7010;48.200;16.332;2022-08-21T02:08:42;4.10;;;3.30;;
13879;SDS011;7010;48.200;16.332;2022-08-21T02:11:11;3.92;;;3.63;;
13879;SDS011;7010;48.200;16.332;2022-08-21T02:13:39;4.00;;;3.70;;
13879;SDS011;7010;48.200;16.332;2022-08-21T02:16:08;4.43;;;4.13;;
13879;SDS011;7010;48.200;16.332;2022-08-21T02:18:38;3.80;;;3.53;;
13879;SDS011;7010;48.200;16.332;2022-08-21T02:21:07;5.50;;;4.20;;
13879;SDS011;7010;48.200;16.332;2022-08-21T02:23:35;3.60;;;3.30;;
13879;SDS011;7010;48.200;16.332;2022-08-21T02:26:07;3.65;;;3.45;;
13879;SDS011;7010;48.200;16.332;2022-08-21T02:28:36;3.08;;;2.88;;
13879;SDS011;7010;48.200;16.332;2022-08-21T02:31:05;2.85;;;2.65;;
13879;SDS011;7010;48.200;16.332;2022-08-21T02:33:34;3.33;;;2.55;;
13879;SDS011;7010;48.200;16.332;2022-08-21T02:36:02;3.10;;;2.90;;
13879;SDS011;7010;48.200;16.332;2022-08-21T02:38:32;3.53;;;3.22;;
13879;SDS011;7010;48.200;16.332;2022-08-21T02:41:06;4.03;;;2.53;;
13879;SDS011;7010;48.200;16.332;2022-08-21T02:43:37;2.65;;;2.55;;
13879;SDS011;7010;48.200;16.332;2022-08-21T02:46:05;2.38;;;2.22;;
13879;SDS011;7010;48.200;16.332;2022-08-21T02:48:35;3.10;;;2.90;;
13879;SDS011;7010;48.200;16.332;2022-08-21T02:51:05;3.35;;;3.10;;
13879;SDS011;7010;48.200;16.332;2022-08-21T02:53:35;3.05;;;2.85;;
13879;SDS011;7010;48.200;16.332;2022-08-21T02:56:07;3.28;;;3.08;;
13879;SDS011;7010;48.200;16.332;2022-08-21T02:58:38;4.38;;;3.75;;
13879;SDS011;7010;48.200;16.332;2022-08-21T03:01:08;4.20;;;3.90;;
13879;SDS011;7010;48.200;16.332;2022-08-21T03:03:37;3.90;;;3.60;;
13879;SDS011;7010;48.200;16.332;2022-08-21T03:06:07;4.35;;;4.05;;
13879;SDS011;7010;48.200;16.332;2022-08-21T03:08:37;3.72;;;3.42;;
13879;SDS011;7010;48.200;16.332;2022-08-21T03:11:08;4.15;;;3.78;;
13879;SDS011;7010;48.200;16.332;2022-08-21T03:13:38;2.58;;;2.47;;
13879;SDS011;7010;48.200;16.332;2022-08-21T03:16:07;3.08;;;2.88;;
13879;SDS011;7010;48.200;16.332;2022-08-21T03:18:36;2.90;;;2.55;;
13879;SDS011;7010;48.200;16.332;2022-08-21T03:21:05;2.35;;;2.25;;
13879;SDS011;7010;48.200;16.332;2022-08-21T03:23:33;2.25;;;2.15;;
13879;SDS011;7010;48.200;16.332;2022-08-21T03:26:02;3.33;;;2.40;;
13879;SDS011;7010;48.200;16.332;2022-08-21T03:28:34;2.63;;;2.50;;
13879;SDS011;7010;48.200;16.332;2022-08-21T03:31:02;4.82;;;2.45;;
13879;SDS011;7010;48.200;16.332;2022-08-21T03:33:31;2.70;;;2.50;;
13879;SDS011;7010;48.200;16.332;2022-08-21T03:36:01;2.90;;;2.70;;
13879;SDS011;7010;48.200;16.332;2022-08-21T03:38:32;2.97;;;2.65;;
13879;SDS011;7010;48.200;16.332;2022-08-21T03:41:02;2.58;;;2.42;;
13879;SDS011;7010;48.200;16.332;2022-08-21T03:43:35;2.65;;;2.45;;
13879;SDS011;7010;48.200;16.332;2022-08-21T03:46:05;2.17;;;2.08;;
13879;SDS011;7010;48.200;16.332;2022-08-21T03:48:34;1.80;;;1.70;;
13879;SDS011;7010;48.200;16.332;2022-08-21T03:51:04;1.65;;;1.55;;
13879;SDS011;7010;48.200;16.332;2022-08-21T03:53:33;2.42;;;2.33;;
13879;SDS011;7010;48.200;16.332;2022-08-21T03:56:01;1.85;;;1.75;;
13879;SDS011;7010;48.200;16.332;2022-08-21T03:58:31;1.60;;;1.50;;
13879;SDS011;7010;48.200;16.332;2022-08-21T04:01:02;1.80;;;1.70;;
13879;SDS011;7010;48.200;16.332;2022-08-21T04:03:33;1.20;;;1.20;;
13879;SDS011;7010;48.200;16.332;2022-08-21T04:06:03;1.42;;;1.42;;
13879;SDS011;7010;48.200;16.332;2022-08-21T04:08:32;2.05;;;1.95;;
13879;SDS011;7010;48.200;16.332;2022-08-21T04:11:01;1.52;;;1.42;;
13879;SDS011;7010;48.200;16.332;2022-08-21T04:13:30;1.60;;;1.52;;
13879;SDS011;7010;48.200;16.332;2022-08-21T04:15:58;3.67;;;2.03;;
13879;SDS011;7010;48.200;16.332;2022-08-21T04:18:28;1.70;;;1.60;;
13879;SDS011;7010;48.200;16.332;2022-08-21T04:20:56;2.65;;;2.45;;
13879;SDS011;7010;48.200;16.332;2022-08-21T04:23:27;2.03;;;1.92;;
13879;SDS011;7010;48.200;16.332;2022-08-21T04:25:55;2.10;;;2.00;;
13879;SDS011;7010;48.200;16.332;2022-08-21T04:28:25;2.00;;;1.90;;
13879;SDS011;7010;48.200;16.332;2022-08-21T04:30:56;1.60;;;1.52;;
13879;SDS011;7010;48.200;16.332;2022-08-21T04:33:25;1.90;;;1.80;;
13879;SDS011;7010;48.200;16.332;2022-08-21T04:35:54;1.92;;;1.83;;
13879;SDS011;7010;48.200;16.332;2022-08-21T04:38:23;1.73;;;1.63;;
13879;SDS011;7010;48.200;16.332;2022-08-21T04:41:01;2.63;;;2.42;;
13879;SDS011;7010;48.200;16.332;2022-08-21T04:43:30;2.20;;;2.10;;
13879;SDS011;7010;48.200;16.332;2022-08-21T04:45:58;2.30;;;2.15;;
13879;SDS011;7010;48.200;16.332;2022-08-21T04:48:27;2.03;;;1.92;;
13879;SDS011;7010;48.200;16.332;2022-08-21T04:50:58;3.58;;;2.58;;
13879;SDS011;7010;48.200;16.332;2022-08-21T04:53:33;2.40;;;2.30;;
13879;SDS011;7010;48.200;16.332;2022-08-21T04:56:05;2.75;;;2.55;;
13879;SDS011;7010;48.200;16.332;2022-08-21T04:58:36;2.53;;;2.22;;
13879;SDS011;7010;48.200;16.332;2022-08-21T05:01:06;2.08;;;1.98;;
13879;SDS011;7010;48.200;16.332;2022-08-21T05:03:37;3.00;;;2.65;;
13879;SDS011;7010;48.200;16.332;2022-08-21T05:06:09;2.22;;;2.10;;
13879;SDS011;7010;48.200;16.332;2022-08-21T05:08:39;2.58;;;2.38;;
13879;SDS011;7010;48.200;16.332;2022-08-21T05:11:10;1.83;;;1.73;;
13879;SDS011;7010;48.200;16.332;2022-08-21T05:13:39;2.60;;;2.40;;
13879;SDS011;7010;48.200;16.332;2022-08-21T05:16:08;2.47;;;2.38;;
13879;SDS011;7010;48.200;16.332;2022-08-21T05:18:36;2.25;;;2.15;;
13879;SDS011;7010;48.200;16.332;2022-08-21T05:21:04;3.28;;;2.97;;
13879;SDS011;7010;48.200;16.332;2022-08-21T05:23:34;2.33;;;2.22;;
13879;SDS011;7010;48.200;16.332;2022-08-21T05:26:03;2.50;;;2.30;;
13879;SDS011;7010;48.200;16.332;2022-08-21T05:28:31;2.58;;;2.40;;
13879;SDS011;7010;48.200;16.332;2022-08-21T05:31:00;4.82;;;2.65;;
13879;SDS011;7010;48.200;16.332;2022-08-21T05:33:28;2.17;;;2.08;;
13879;SDS011;7010;48.200;16.332;2022-08-21T05:35:57;3.03;;;2.83;;
13879;SDS011;7010;48.200;16.332;2022-08-21T05:38:25;2.88;;;2.67;;
13879;SDS011;7010;48.200;16.332;2022-08-21T05:40:56;3.38;;;3.08;;
13879;SDS011;7010;48.200;16.332;2022-08-21T05:43:24;2.65;;;2.55;;
13879;SDS011;7010;48.200;16.332;2022-08-21T05:45:52;2.92;;;2.72;;
13879;SDS011;7010;48.200;16.332;2022-08-21T05:48:22;3.03;;;2.83;;
13879;SDS011;7010;48.200;16.332;2022-08-21T05:50:51;2.92;;;2.72;;
13879;SDS011;7010;48.200;16.332;2022-08-21T05:53:20;2.47;;;2.35;;
13879;SDS011;7010;48.200;16.332;2022-08-21T05:55:50;2.60;;;2.40;;
13879;SDS011;7010;48.200;16.332;2022-08-21T05:58:20;2.95;;;2.67;;
13879;SDS011;7010;48.200;16.332;2022-08-21T06:00:50;2.78;;;2.58;;
13879;SDS011;7010;48.200;16.332;2022-08-21T06:03:22;3.58;;;2.70;;
13879;SDS011;7010;48.200;16.332;2022-08-21T06:05:51;2.97;;;2.78;;
13879;SDS011;7010;48.200;16.332;2022-08-21T06:08:20;3.05;;;2.80;;
13879;SDS011;7010;48.200;16.332;2022-08-21T06:10:50;2.50;;;2.30;;
13879;SDS011;7010;48.200;16.332;2022-08-21T06:13:21;3.63;;;2.97;;
13879;SDS011;7010;48.200;16.332;2022-08-21T06:16:00;2.92;;;2.55;;
13879;SDS011;7010;48.200;16.332;2022-08-21T06:18:30;2.83;;;2.63;;
13879;SDS011;7010;48.200;16.332;2022-08-21T06:20:58;2.88;;;2.67;;
13879;SDS011;7010;48.200;16.332;2022-08-21T06:23:26;3.38;;;2.83;;
13879;SDS011;7010;48.200;16.332;2022-08-21T06:25:58;2.95;;;2.75;;
13879;SDS011;7010;48.200;16.332;2022-08-21T06:28:29;3.28;;;3.03;;
13879;SDS011;7010;48.200;16.332;2022-08-21T06:30:57;3.08;;;2.88;;
13879;SDS011;7010;48.200;16.332;2022-08-21T06:33:26;2.40;;;2.30;;
13879;SDS011;7010;48.200;16.332;2022-08-21T06:35:58;2.40;;;2.30;;
13879;SDS011;7010;48.200;16.332;2022-08-21T06:38:26;2.47;;;2.38;;
13879;SDS011;7010;48.200;16.332;2022-08-21T06:40:56;4.50;;;3.00;;
13879;SDS011;7010;48.200;16.332;2022-08-21T06:43:25;4.22;;;3.10;;
13879;SDS011;7010;48.200;16.332;2022-08-21T06:46:06;2.47;;;2.38;;
13879;SDS011;7010;48.200;16.332;2022-08-21T06:48:35;2.67;;;2.47;;
13879;SDS011;7010;48.200;16.332;2022-08-21T06:51:03;4.30;;;3.45;;
13879;SDS011;7010;48.200;16.332;2022-08-21T06:53:32;3.25;;;2.85;;
13879;SDS011;7010;48.200;16.332;2022-08-21T06:56:01;3.50;;;3.30;;
13879;SDS011;7010;48.200;16.332;2022-08-21T06:58:30;3.30;;;2.90;;
13879;SDS011;7010;48.200;16.332;2022-08-21T07:00:58;2.90;;;2.67;;
13879;SDS011;7010;48.200;16.332;2022-08-21T07:03:29;2.50;;;2.40;;
13879;SDS011;7010;48.200;16.332;2022-08-21T07:05:59;2.42;;;2.22;;
13879;SDS011;7010;48.200;16.332;2022-08-21T07:08:27;2.60;;;2.40;;
13879;SDS011;7010;48.200;16.332;2022-08-21T07:10:57;2.38;;;2.28;;
13879;SDS011;7010;48.200;16.332;2022-08-21T07:13:27;3.03;;;2.83;;
13879;SDS011;7010;48.200;16.332;2022-08-21T07:15:56;3.10;;;2.90;;
13879;SDS011;7010;48.200;16.332;2022-08-21T07:18:31;2.72;;;2.53;;
13879;SDS011;7010;48.200;16.332;2022-08-21T07:21:00;3.53;;;3.25;;
13879;SDS011;7010;48.200;16.332;2022-08-21T07:23:30;3.20;;;2.90;;
13879;SDS011;7010;48.200;16.332;2022-08-21T07:26:01;3.08;;;2.88;;
13879;SDS011;7010;48.200;16.332;2022-08-21T07:28:29;3.00;;;2.58;;
13879;SDS011;7010;48.200;16.332;2022-08-21T07:30:58;3.33;;;3.05;;
13879;SDS011;7010;48.200;16.332;2022-08-21T07:33:29;3.08;;;2.75;;
13879;SDS011;7010;48.200;16.332;2022-08-21T07:36:01;3.28;;;2.88;;
13879;SDS011;7010;48.200;16.332;2022-08-21T07:38:30;2.50;;;2.40;;
13879;SDS011;7010;48.200;16.332;2022-08-21T07:40:59;3.13;;;2.92;;
13879;SDS011;7010;48.200;16.332;2022-08-21T07:43:28;2.65;;;2.45;;
13879;SDS011;7010;48.200;16.332;2022-08-21T07:45:57;3.22;;;2.95;;
13879;SDS011;7010;48.200;16.332;2022-08-21T07:48:25;2.33;;;2.20;;
13879;SDS011;7010;48.200;16.332;2022-08-21T07:50:55;3.10;;;2.90;;
13879;SDS011;7010;48.200;16.332;2022-08-21T07:53:23;2.42;;;2.33;;
13879;SDS011;7010;48.200;16.332;2022-08-21T07:55:51;2.88;;;2.67;;
13879;SDS011;7010;48.200;16.332;2022-08-21T07:58:20;3.00;;;2.80;;
13879;SDS011;7010;48.200;16.332;2022-08-21T08:00:48;3.10;;;2.90;;
13879;SDS011;7010;48.200;16.332;2022-08-21T08:03:16;3.78;;;3.38;;
13879;SDS011;7010;48.200;16.332;2022-08-21T08:05:55;3.40;;;3.10;;
13879;SDS011;7010;48.200;16.332;2022-08-21T08:08:24;3.88;;;3.58;;
13879;SDS011;7010;48.200;16.332;2022-08-21T08:10:53;4.05;;;3.75;;
13879;SDS011;7010;48.200;16.332;2022-08-21T08:13:23;4.40;;;3.97;;
13879;SDS011;7010;48.200;16.332;2022-08-21T08:15:52;3.88;;;3.58;;
13879;SDS011;7010;48.200;16.332;2022-08-21T08:18:21;5.07;;;4.68;;
13879;SDS011;7010;48.200;16.332;2022-08-21T08:20:49;3.50;;;3.25;;
13879;SDS011;7010;48.200;16.332;2022-08-21T08:23:18;4.20;;;3.88;;
13879;SDS011;7010;48.200;16.332;2022-08-21T08:25:47;3.55;;;3.35;;
13879;SDS011;7010;48.200;16.332;2022-08-21T08:28:15;4.20;;;3.90;;
13879;SDS011;7010;48.200;16.332;2022-08-21T08:30:44;3.25;;;3.05;;
13879;SDS011;7010;48.200;16.332;2022-08-21T08:33:13;3.28;;;3.08;;
13879;SDS011;7010;48.200;16.332;2022-08-21T08:35:44;3.33;;;3.13;;
13879;SDS011;7010;48.200;16.332;2022-08-21T08:38:14;3.05;;;2.58;;
13879;SDS011;7010;48.200;16.332;2022-08-21T08:40:50;2.95;;;2.75;;
13879;SDS011;7010;48.200;16.332;2022-08-21T08:43:22;4.75;;;2.42;;
13879;SDS011;7010;48.200;16.332;2022-08-21T08:45:51;3.00;;;2.72;;
13879;SDS011;7010;48.200;16.332;2022-08-21T08:48:30;2.95;;;2.75;;
13879;SDS011;7010;48.200;16.332;2022-08-21T08:51:06;3.15;;;2.95;;
13879;SDS011;7010;48.200;16.332;2022-08-21T08:53:44;3.42;;;3.13;;
13879;SDS011;7010;48.200;16.332;2022-08-21T08:56:21;3.30;;;3.10;;
13879;SDS011;7010;48.200;16.332;2022-08-21T08:58:55;3.33;;;3.13;;
13879;SDS011;7010;48.200;16.332;2022-08-21T09:01:29;3.25;;;3.05;;
13879;SDS011;7010;48.200;16.332;2022-08-21T09:04:03;2.78;;;2.58;;
13879;SDS011;7010;48.200;16.332;2022-08-21T09:06:37;2.83;;;2.63;;
13879;SDS011;7010;48.200;16.332;2022-08-21T09:09:22;2.25;;;2.15;;
13879;SDS011;7010;48.200;16.332;2022-08-21T09:12:04;2.90;;;2.70;;
13879;SDS011;7010;48.200;16.332;2022-08-21T09:14:46;2.47;;;2.38;;
13879;SDS011;7010;48.200;16.332;2022-08-21T09:17:28;1.92;;;1.83;;
13879;SDS011;7010;48.200;16.332;2022-08-21T09:20:11;2.90;;;2.17;;
13879;SDS011;7010;48.200;16.332;2022-08-21T09:22:52;2.47;;;2.38;;
13879;SDS011;7010;48.200;16.332;2022-08-21T09:25:30;2.03;;;1.92;;
13879;SDS011;7010;48.200;16.332;2022-08-21T09:28:02;2.47;;;2.28;;
13879;SDS011;7010;48.200;16.332;2022-08-21T09:30:32;1.80;;;1.70;;
13879;SDS011;7010;48.200;16.332;2022-08-21T09:33:00;2.28;;;2.08;;
13879;SDS011;7010;48.200;16.332;2022-08-21T09:35:28;2.13;;;2.00;;
13879;SDS011;7010;48.200;16.332;2022-08-21T09:37:58;1.85;;;1.75;;
13879;SDS011;7010;48.200;16.332;2022-08-21T09:40:30;1.90;;;1.80;;
13879;SDS011;7010;48.200;16.332;2022-08-21T09:43:06;2.67;;;2.47;;
13879;SDS011;7010;48.200;16.332;2022-08-21T09:45:44;1.50;;;1.50;;
13879;SDS011;7010;48.200;16.332;2022-08-21T09:48:15;1.80;;;1.70;;
13879;SDS011;7010;48.200;16.332;2022-08-21T09:50:47;1.52;;;1.42;;
13879;SDS011;7010;48.200;16.332;2022-08-21T09:53:17;2.08;;;1.95;;
13879;SDS011;7010;48.200;16.332;2022-08-21T09:55:51;3.75;;;2.15;;
13879;SDS011;7010;48.200;16.332;2022-08-21T09:58:36;1.60;;;1.50;;
13879;SDS011;7010;48.200;16.332;2022-08-21T10:01:06;1.20;;;1.20;;
13879;SDS011;7010;48.200;16.332;2022-08-21T10:03:39;1.30;;;1.30;;
13879;SDS011;7010;48.200;16.332;2022-08-21T10:06:08;1.73;;;1.63;;
13879;SDS011;7010;48.200;16.332;2022-08-21T10:08:40;1.00;;;1.00;;
13879;SDS011;7010;48.200;16.332;2022-08-21T10:11:10;1.60;;;1.50;;
13879;SDS011;7010;48.200;16.332;2022-08-21T10:13:50;1.58;;;1.48;;
13879;SDS011;7010;48.200;16.332;2022-08-21T10:16:27;1.42;;;1.40;;
13879;SDS011;7010;48.200;16.332;2022-08-21T10:19:10;1.90;;;1.80;;
13879;SDS011;7010;48.200;16.332;2022-08-21T10:21:57;3.03;;;2.72;;
13879;SDS011;7010;48.200;16.332;2022-08-21T10:24:31;2.25;;;2.05;;
13879;SDS011;7010;48.200;16.332;2022-08-21T10:27:06;1.83;;;1.73;;
13879;SDS011;7010;48.200;16.332;2022-08-21T10:29:46;2.17;;;1.98;;
13879;SDS011;7010;48.200;16.332;2022-08-21T10:32:23;2.03;;;1.92;;
13879;SDS011;7010;48.200;16.332;2022-08-21T10:35:03;1.80;;;1.70;;
13879;SDS011;7010;48.200;16.332;2022-08-21T10:37:40;1.83;;;1.70;;
13879;SDS011;7010;48.200;16.332;2022-08-21T10:40:26;1.95;;;1.85;;
13879;SDS011;7010;48.200;16.332;2022-08-21T10:43:02;1.88;;;1.77;;
13879;SDS011;7010;48.200;16.332;2022-08-21T10:45:45;2.00;;;1.90;;
13879;SDS011;7010;48.200;16.332;2022-08-21T10:48:22;2.42;;;2.25;;
13879;SDS011;7010;48.200;16.332;2022-08-21T10:50:55;2.50;;;2.15;;
13879;SDS011;7010;48.200;16.332;2022-08-21T10:56:21;1.52;;;1.42;;
13879;SDS011;7010;48.200;16.332;2022-08-21T10:59:00;1.92;;;1.83;;
13879;SDS011;7010;48.200;16.332;2022-08-21T11:01:39;2.50;;;2.30;;
13879;SDS011;7010;48.200;16.332;2022-08-21T11:04:16;2.08;;;1.98;;
13879;SDS011;7010;48.200;16.332;2022-08-21T11:06:49;1.95;;;1.50;;
13879;SDS011;7010;48.200;16.332;2022-08-21T11:09:24;1.80;;;1.70;;
13879;SDS011;7010;48.200;16.332;2022-08-21T11:11:56;1.65;;;1.45;;
13879;SDS011;7010;48.200;16.332;2022-08-21T11:14:39;1.75;;;1.65;;
13879;SDS011;7010;48.200;16.332;2022-08-21T11:17:18;1.25;;;1.25;;
13879;SDS011;7010;48.200;16.332;2022-08-21T11:19:52;1.08;;;1.08;;
13879;SDS011;7010;48.200;16.332;2022-08-21T11:22:27;1.45;;;1.02;;
13879;SDS011;7010;48.200;16.332;2022-08-21T11:25:03;1.27;;;1.25;;
13879;SDS011;7010;48.200;16.332;2022-08-21T11:27:38;1.20;;;1.20;;
13879;SDS011;7010;48.200;16.332;2022-08-21T11:30:10;1.95;;;1.83;;
13879;SDS011;7010;48.200;16.332;2022-08-21T11:32:46;1.75;;;1.65;;
13879;SDS011;7010;48.200;16.332;2022-08-21T11:35:29;1.92;;;1.23;;
13879;SDS011;7010;48.200;16.332;2022-08-21T11:38:14;1.00;;;1.00;;
13879;SDS011;7010;48.200;16.332;2022-08-21T11:41:07;1.48;;;1.38;;
13879;SDS011;7010;48.200;16.332;2022-08-21T11:43:45;1.60;;;1.50;;
13879;SDS011;7010;48.200;16.332;2022-08-21T11:46:18;1.65;;;1.40;;
13879;SDS011;7010;48.200;16.332;2022-08-21T11:49:02;1.10;;;1.10;;
13879;SDS011;7010;48.200;16.332;2022-08-21T11:51:50;1.40;;;1.30;;
13879;SDS011;7010;48.200;16.332;2022-08-21T11:54:24;1.10;;;1.10;;
13879;SDS011;7010;48.200;16.332;2022-08-21T11:56:57;1.20;;;1.10;;
13879;SDS011;7010;48.200;16.332;2022-08-21T11:59:32;1.38;;;1.23;;
13879;SDS011;7010;48.200;16.332;2022-08-21T12:02:07;1.10;;;1.10;;
13879;SDS011;7010;48.200;16.332;2022-08-21T12:04:47;1.40;;;1.30;;
13879;SDS011;7010;48.200;16.332;2022-08-21T12:07:32;1.15;;;1.15;;
13879;SDS011;7010;48.200;16.332;2022-08-21T12:10:04;1.20;;;1.20;;
13879;SDS011;7010;48.200;16.332;2022-08-21T12:12:36;1.73;;;1.38;;
13879;SDS011;7010;48.200;16.332;2022-08-21T12:15:14;1.48;;;1.40;;
13879;SDS011;7010;48.200;16.332;2022-08-21T12:17:55;1.40;;;1.30;;
13879;SDS011;7010;48.200;16.332;2022-08-21T12:20:33;1.13;;;1.13;;
13879;SDS011;7010;48.200;16.332;2022-08-21T12:23:24;1.30;;;1.20;;
13879;SDS011;7010;48.200;16.332;2022-08-21T12:26:11;3.15;;;2.88;;
13879;SDS011;7010;48.200;16.332;2022-08-21T12:28:48;1.05;;;1.05;;
13879;SDS011;7010;48.200;16.332;2022-08-21T12:31:18;1.23;;;1.17;;
13879;SDS011;7010;48.200;16.332;2022-08-21T12:33:52;1.30;;;1.20;;
13879;SDS011;7010;48.200;16.332;2022-08-21T12:36:27;1.27;;;1.27;;
13879;SDS011;7010;48.200;16.332;2022-08-21T12:39:10;1.15;;;1.15;;
13879;SDS011;7010;48.200;16.332;2022-08-21T12:41:43;1.33;;;1.23;;
13879;SDS011;7010;48.200;16.332;2022-08-21T12:44:17;2.08;;;1.98;;
13879;SDS011;7010;48.200;16.332;2022-08-21T12:46:53;1.60;;;1.50;;
13879;SDS011;7010;48.200;16.332;2022-08-21T12:49:26;1.60;;;1.50;;
13879;SDS011;7010;48.200;16.332;2022-08-21T12:52:02;1.50;;;1.40;;
13879;SDS011;7010;48.200;16.332;2022-08-21T12:54:37;1.10;;;1.10;;
13879;SDS011;7010;48.200;16.332;2022-08-21T12:57:08;1.73;;;1.02;;
13879;SDS011;7010;48.200;16.332;2022-08-21T12:59:45;1.08;;;1.08;;
13879;SDS011;7010;48.200;16.332;2022-08-21T13:02:15;1.73;;;1.63;;
13879;SDS011;7010;48.200;16.332;2022-08-21T13:04:46;1.70;;;1.60;;
13879;SDS011;7010;48.200;16.332;2022-08-21T13:07:19;1.50;;;1.40;;
13879;SDS011;7010;48.200;16.332;2022-08-21T13:09:53;1.65;;;1.52;;
13879;SDS011;7010;48.200;16.332;2022-08-21T13:12:25;1.90;;;1.75;;
13879;SDS011;7010;48.200;16.332;2022-08-21T13:14:58;1.58;;;1.48;;
13879;SDS011;7010;48.200;16.332;2022-08-21T13:17:35;1.30;;;1.30;;
13879;SDS011;7010;48.200;16.332;2022-08-21T13:20:07;1.27;;;1.27;;
13879;SDS011;7010;48.200;16.332;2022-08-21T13:22:41;1.63;;;1.52;;
13879;SDS011;7010;48.200;16.332;2022-08-21T13:25:11;1.60;;;1.50;;
13879;SDS011;7010;48.200;16.332;2022-08-21T13:27:41;1.10;;;1.10;;
13879;SDS011;7010;48.200;16.332;2022-08-21T13:30:17;1.38;;;1.30;;
13879;SDS011;7010;48.200;16.332;2022-08-21T13:32:47;1.92;;;1.83;;
13879;SDS011;7010;48.200;16.332;2022-08-21T13:35:19;1.42;;;1.33;;
13879;SDS011;7010;48.200;16.332;2022-08-21T13:37:50;1.48;;;1.48;;
13879;SDS011;7010;48.200;16.332;2022-08-21T13:40:19;2.30;;;1.52;;
13879;SDS011;7010;48.200;16.332;2022-08-21T13:42:51;2.05;;;1.85;;
13879;SDS011;7010;48.200;16.332;2022-08-21T13:45:22;2.22;;;2.03;;
13879;SDS011;7010;48.200;16.332;2022-08-21T13:47:53;1.50;;;1.40;;
13879;SDS011;7010;48.200;16.332;2022-08-21T13:50:23;1.83;;;1.73;;
13879;SDS011;7010;48.200;16.332;2022-08-21T13:52:59;1.33;;;1.33;;
13879;SDS011;7010;48.200;16.332;2022-08-21T13:55:37;1.85;;;1.75;;
13879;SDS011;7010;48.200;16.332;2022-08-21T13:58:08;1.73;;;1.63;;
13879;SDS011;7010;48.200;16.332;2022-08-21T14:00:43;1.65;;;1.55;;
13879;SDS011;7010;48.200;16.332;2022-08-21T14:03:23;1.92;;;1.83;;
13879;SDS011;7010;48.200;16.332;2022-08-21T14:05:56;2.05;;;1.95;;
13879;SDS011;7010;48.200;16.332;2022-08-21T14:08:29;2.22;;;2.03;;
13879;SDS011;7010;48.200;16.332;2022-08-21T14:11:02;2.30;;;1.92;;
13879;SDS011;7010;48.200;16.332;2022-08-21T14:13:34;3.40;;;2.10;;
13879;SDS011;7010;48.200;16.332;2022-08-21T14:16:10;2.13;;;1.98;;
13879;SDS011;7010;48.200;16.332;2022-08-21T14:18:46;1.60;;;1.50;;
13879;SDS011;7010;48.200;16.332;2022-08-21T14:21:23;1.67;;;1.58;;
13879;SDS011;7010;48.200;16.332;2022-08-21T14:24:04;4.15;;;2.03;;
13879;SDS011;7010;48.200;16.332;2022-08-21T14:26:34;2.38;;;2.20;;
13879;SDS011;7010;48.200;16.332;2022-08-21T14:29:06;1.77;;;1.67;;
13879;SDS011;7010;48.200;16.332;2022-08-21T14:31:36;1.88;;;1.70;;
13879;SDS011;7010;48.200;16.332;2022-08-21T14:34:09;2.25;;;2.05;;
13879;SDS011;7010;48.200;16.332;2022-08-21T14:36:45;1.90;;;1.80;;
13879;SDS011;7010;48.200;16.332;2022-08-21T14:39:15;2.33;;;2.13;;
13879;SDS011;7010;48.200;16.332;2022-08-21T14:41:44;1.48;;;1.38;;
13879;SDS011;7010;48.200;16.332;2022-08-21T14:44:14;2.70;;;2.50;;
13879;SDS011;7010;48.200;16.332;2022-08-21T14:46:44;1.98;;;1.88;;
13879;SDS011;7010;48.200;16.332;2022-08-21T14:49:22;2.65;;;2.45;;
13879;SDS011;7010;48.200;16.332;2022-08-21T14:51:53;2.78;;;2.22;;
13879;SDS011;7010;48.200;16.332;2022-08-21T14:54:26;2.78;;;2.17;;
13879;SDS011;7010;48.200;16.332;2022-08-21T14:56:57;1.92;;;1.83;;
13879;SDS011;7010;48.200;16.332;2022-08-21T14:59:28;2.15;;;2.00;;
13879;SDS011;7010;48.200;16.332;2022-08-21T15:01:57;1.77;;;1.67;;
13879;SDS011;7010;48.200;16.332;2022-08-21T15:04:25;2.45;;;2.33;;
13879;SDS011;7010;48.200;16.332;2022-08-21T15:06:53;9.98;;;2.10;;
13879;SDS011;7010;48.200;16.332;2022-08-21T15:09:22;2.45;;;2.25;;
13879;SDS011;7010;48.200;16.332;2022-08-21T15:11:52;2.35;;;2.22;;
13879;SDS011;7010;48.200;16.332;2022-08-21T15:14:25;3.03;;;2.70;;
13879;SDS011;7010;48.200;16.332;2022-08-21T15:16:54;3.55;;;2.53;;
13879;SDS011;7010;48.200;16.332;2022-08-21T15:19:23;2.10;;;2.00;;